KGJT/GJT METAR and TAF weather

Enter ICAO airport designator
Station Type Date Time Source
KGJT METAR 2019/08/24 06:53 UTC NOAA

KGJT 240653Z AUTO 00000KT 10SM CLR 19/M07 A2999 RMK AO2 SLP079 T01891067 403500183


Station Type Date Time Source
KGJT Decoded METAR 2019/08/24 06:53 UTC NOAA

Station name not available
Aug 24, 2019 - 02:53 AM EDT / 2019.08.24 0653 UTC
Wind: Calm:0
Visibility: 10 mile(s):0
Sky conditions: clear
Temperature: 66.0 F (18.9 C)
Dew Point: 19.9 F (-6.7 C)
Relative Humidity: 16%
Pressure (altimeter): 29.99 in. Hg (1015 hPa)
ob: KGJT 240653Z AUTO 00000KT 10SM CLR 19/M07 A2999 RMK AO2 SLP079 T01891067 403500183
cycle: 7

Station Type Date Time Source
KGJT TAF 2019/08/24 06:42 UTC NOAA

TAF KGJT 240540Z 2406/2506 06007KT P6SM SKC
FM250000 28012G20KT P6SM FEW150 FEW250
FM250100 24011KT P6SM FEW150 FEW250
FM250200 18008KT P6SM FEW150 FEW250

Example: see airport list